createdAt,value
2023-01-02T00:02:00.571Z,10.05
2023-01-02T00:04:45.890Z,11.32
2023-01-02T00:07:31.689Z,9.00
2023-01-02T00:10:17.260Z,9.20
2023-01-02T00:13:02.869Z,11.25
2023-01-02T00:15:48.850Z,15.63
2023-01-02T00:18:34.310Z,14.85
2023-01-02T00:21:19.689Z,14.00
2023-01-02T00:24:05.433Z,12.75
2023-01-02T00:26:50.616Z,14.00
2023-01-02T00:29:36.136Z,14.23
2023-01-02T00:32:21.691Z,12.60
2023-01-02T00:35:07.496Z,12.07
2023-01-02T00:37:53.649Z,11.43
2023-01-02T00:40:39.416Z,16.88
2023-01-02T00:43:25.212Z,17.75
2023-01-02T00:46:12.163Z,12.38
2023-01-02T00:48:58.010Z,14.90
2023-01-02T00:51:43.625Z,23.75
2023-01-02T00:54:29.005Z,21.05
2023-01-02T00:57:14.535Z,25.10
2023-01-02T01:00:00.129Z,14.13
2023-01-02T01:02:45.573Z,19.33
2023-01-02T01:05:31.401Z,20.38
2023-01-02T01:08:16.841Z,15.88
2023-01-02T01:11:11.022Z,14.05
2023-01-02T01:13:56.305Z,14.50
2023-01-02T01:16:42.481Z,14.00
2023-01-02T01:19:34.908Z,17.33
2023-01-02T01:22:20.393Z,20.88
2023-01-02T01:25:06.272Z,19.45
2023-01-02T01:27:54.901Z,21.10
2023-01-02T01:30:40.240Z,19.83
2023-01-02T01:33:25.654Z,19.17
2023-01-02T01:36:17.075Z,22.35
2023-01-02T01:39:02.739Z,23.98
2023-01-02T01:41:48.260Z,22.25
2023-01-02T01:44:44.148Z,18.60
2023-01-02T01:47:35.761Z,20.08
2023-01-02T01:50:35.587Z,16.20
2023-01-02T01:53:22.710Z,9.98
2023-01-02T01:56:10.726Z,8.95
2023-01-02T01:58:56.214Z,8.73
2023-01-02T02:01:43.832Z,8.35
2023-01-02T02:04:31.913Z,9.95
2023-01-02T02:07:17.514Z,11.98
2023-01-02T02:10:08.212Z,14.48
2023-01-02T02:12:53.831Z,14.48
2023-01-02T02:15:57.978Z,13.57
2023-01-02T02:19:02.118Z,13.23
2023-01-02T02:22:19.128Z,12.25
2023-01-02T02:25:26.104Z,13.52
2023-01-02T02:28:20.877Z,13.65
2023-01-02T02:31:06.333Z,18.92
2023-01-02T02:34:10.597Z,17.45
2023-01-02T02:37:14.914Z,12.23
2023-01-02T02:40:04.229Z,10.90
2023-01-02T02:42:59.012Z,16.95
2023-01-02T02:46:12.336Z,13.75
2023-01-02T02:49:10.853Z,13.88
2023-01-02T02:52:03.328Z,21.42
2023-01-02T02:55:01.236Z,19.25
2023-01-02T02:57:47.627Z,15.73
2023-01-02T03:00:33.035Z,15.93
2023-01-02T03:03:21.059Z,16.98
2023-01-02T03:06:19.981Z,18.77
2023-01-02T03:09:24.049Z,18.73
2023-01-02T03:12:26.629Z,19.42
2023-01-02T03:15:40.107Z,16.83
2023-01-02T03:18:32.113Z,17.40
2023-01-02T03:21:31.035Z,15.40
2023-01-02T03:24:20.091Z,15.68
2023-01-02T03:27:12.778Z,14.73
2023-01-02T03:30:21.300Z,15.55
2023-01-02T03:33:12.804Z,14.40
2023-01-02T03:36:08.645Z,13.50
2023-01-02T03:39:07.044Z,13.10
2023-01-02T03:42:07.904Z,13.73
2023-01-02T03:45:03.953Z,12.98
2023-01-02T03:48:08.713Z,7.40
2023-01-02T03:50:57.907Z,5.13
2023-01-02T03:53:44.059Z,3.42
2023-01-02T03:56:46.619Z,4.10
2023-01-02T03:59:55.322Z,3.63
2023-01-02T04:03:07.656Z,4.30
2023-01-02T04:06:09.459Z,4.20
2023-01-02T04:09:16.774Z,4.72
2023-01-02T04:12:07.616Z,4.50
2023-01-02T04:14:59.751Z,5.40
2023-01-02T04:17:49.711Z,6.32
2023-01-02T04:20:40.780Z,6.03
2023-01-02T04:23:35.478Z,5.90
2023-01-02T04:26:26.776Z,5.43
2023-01-02T04:29:12.105Z,5.18
2023-01-02T04:32:23.004Z,5.47
2023-01-02T04:35:13.823Z,4.82
2023-01-02T04:38:07.880Z,5.03
2023-01-02T04:40:53.449Z,5.35
2023-01-02T04:43:38.873Z,6.07
2023-01-02T04:46:25.793Z,6.15
2023-01-02T04:49:11.230Z,5.20
2023-01-02T04:51:56.451Z,5.30
2023-01-02T04:54:41.888Z,4.88
2023-01-02T04:57:27.317Z,5.50
2023-01-02T05:00:12.980Z,4.20
2023-01-02T05:02:58.700Z,4.45
2023-01-02T05:05:43.939Z,4.53
2023-01-02T05:08:29.839Z,4.70
2023-01-02T05:11:19.636Z,4.65
2023-01-02T05:14:07.551Z,4.30
2023-01-02T05:16:53.233Z,4.90
2023-01-02T05:19:39.157Z,4.75
2023-01-02T05:22:45.706Z,5.03
2023-01-02T05:25:33.586Z,3.90
2023-01-02T05:28:19.137Z,2.67
2023-01-02T05:31:04.855Z,2.92
2023-01-02T05:33:55.144Z,2.53
2023-01-02T05:36:40.888Z,3.35
2023-01-02T05:39:26.836Z,3.20
2023-01-02T05:42:12.444Z,3.08
2023-01-02T05:44:57.971Z,3.58
2023-01-02T05:47:43.209Z,5.35
2023-01-02T05:50:28.543Z,4.70
2023-01-02T05:53:14.083Z,6.82
2023-01-02T05:56:08.358Z,44.20
2023-01-02T05:58:54.099Z,29.77
2023-01-02T06:01:39.863Z,27.23
2023-01-02T06:04:25.686Z,26.65
2023-01-02T06:07:11.063Z,21.25
2023-01-02T06:09:56.493Z,19.17
2023-01-02T06:12:41.777Z,17.50
2023-01-02T06:15:27.322Z,19.00
2023-01-02T06:18:12.920Z,19.58
2023-01-02T06:20:59.777Z,20.95
2023-01-02T06:23:45.699Z,19.55
2023-01-02T06:26:35.195Z,22.08
2023-01-02T06:29:21.055Z,24.05
2023-01-02T06:32:06.501Z,22.60
2023-01-02T06:34:51.890Z,22.27
2023-01-02T06:37:43.278Z,19.50
2023-01-02T06:40:28.949Z,17.95
2023-01-02T06:43:14.379Z,14.57
2023-01-02T06:46:01.673Z,12.23
2023-01-02T06:48:47.813Z,12.95
2023-01-02T06:51:33.314Z,14.18
2023-01-02T06:54:18.735Z,17.48
2023-01-02T06:57:04.358Z,16.52
2023-01-02T06:59:50.137Z,22.00
2023-01-02T07:02:36.790Z,20.35
2023-01-02T07:05:24.890Z,16.38
2023-01-02T07:08:12.147Z,17.33
2023-01-02T07:11:08.407Z,26.40
2023-01-02T07:13:54.973Z,32.13
2023-01-02T07:16:40.511Z,29.27
2023-01-02T07:19:26.000Z,32.92
2023-01-02T07:22:11.274Z,28.40
2023-01-02T07:24:56.761Z,22.67
2023-01-02T07:27:42.174Z,23.45
2023-01-02T07:30:27.617Z,15.95
2023-01-02T07:33:13.087Z,21.02
2023-01-02T07:36:11.158Z,19.70
2023-01-02T07:38:57.564Z,17.88
2023-01-02T07:41:43.771Z,16.10
2023-01-02T07:44:33.912Z,16.60
2023-01-02T07:47:19.617Z,16.00
2023-01-02T07:50:05.639Z,17.17
2023-01-02T07:52:51.276Z,18.20
2023-01-02T07:55:36.764Z,23.30
2023-01-02T07:58:22.478Z,29.00
2023-01-02T08:01:10.933Z,22.95
2023-01-02T08:03:56.670Z,27.85
2023-01-02T08:06:42.389Z,28.25
2023-01-02T08:09:27.800Z,27.35
2023-01-02T08:12:13.223Z,32.22
2023-01-02T08:14:58.639Z,37.28
2023-01-02T08:17:44.174Z,38.83
2023-01-02T08:20:29.532Z,28.77
2023-01-02T08:23:14.825Z,26.13
2023-01-02T08:26:02.369Z,31.05
2023-01-02T08:28:47.679Z,22.90
2023-01-02T08:31:33.131Z,25.15
2023-01-02T08:34:18.610Z,25.70
2023-01-02T08:37:04.300Z,21.25
2023-01-02T08:39:49.649Z,22.63
2023-01-02T08:42:34.899Z,19.50
2023-01-02T08:45:20.156Z,15.88
2023-01-02T08:48:20.294Z,15.60
2023-01-02T08:51:13.023Z,15.00
2023-01-02T08:53:59.150Z,13.18
2023-01-02T08:56:44.423Z,21.30
2023-01-02T08:59:29.877Z,29.45
2023-01-02T09:02:16.085Z,26.20
2023-01-02T09:05:02.151Z,26.13
2023-01-02T09:07:47.594Z,22.98
2023-01-02T09:10:33.170Z,20.75
2023-01-02T09:13:18.496Z,17.27
2023-01-02T09:16:04.172Z,17.80
2023-01-02T09:18:50.932Z,17.52
2023-01-02T09:21:36.511Z,13.57
2023-01-02T09:24:22.403Z,12.07
2023-01-02T09:27:08.395Z,12.27
2023-01-02T09:29:53.948Z,11.00
2023-01-02T09:32:39.385Z,9.10
2023-01-02T09:35:25.653Z,7.28
2023-01-02T09:38:11.066Z,6.40
2023-01-02T09:40:59.091Z,5.93
2023-01-02T09:43:49.724Z,5.22
2023-01-02T09:47:00.359Z,5.53
2023-01-02T09:49:52.960Z,5.60
2023-01-02T09:52:51.520Z,6.15
2023-01-02T09:55:50.067Z,6.85
2023-01-02T09:59:17.537Z,6.45
2023-01-02T10:02:06.261Z,6.18
2023-01-02T10:05:24.199Z,6.35
2023-01-02T10:08:36.400Z,5.78
2023-01-02T10:11:24.854Z,5.55
2023-01-02T10:14:38.697Z,5.68
2023-01-02T10:17:28.437Z,6.32
2023-01-02T10:20:15.686Z,7.35
2023-01-02T10:23:14.842Z,7.47
2023-01-02T10:26:13.905Z,7.00
2023-01-02T10:29:16.301Z,7.32
2023-01-02T10:32:07.715Z,8.38
2023-01-02T10:35:00.060Z,7.75
2023-01-02T10:37:45.525Z,10.75
2023-01-02T10:40:33.325Z,10.80
2023-01-02T10:43:19.705Z,12.10
2023-01-02T10:46:05.418Z,7.43
2023-01-02T10:48:52.461Z,7.15
2023-01-02T10:51:48.254Z,7.32
2023-01-02T10:55:00.030Z,7.88
2023-01-02T10:57:51.523Z,7.00
2023-01-02T11:00:37.313Z,6.35
2023-01-02T11:03:25.657Z,6.55
2023-01-02T11:06:35.134Z,7.05
2023-01-02T11:09:26.565Z,5.60
2023-01-02T11:12:14.486Z,6.82
2023-01-02T11:15:13.858Z,5.55
2023-01-02T11:18:02.869Z,4.53
2023-01-02T11:20:54.224Z,4.45
2023-01-02T11:23:43.644Z,5.60
2023-01-02T11:26:30.711Z,5.18
2023-01-02T11:29:26.340Z,3.35
2023-01-02T11:32:23.085Z,3.60
2023-01-02T11:35:32.234Z,3.90
2023-01-02T11:38:30.054Z,4.82
2023-01-02T11:41:54.963Z,3.60
2023-01-02T11:45:08.445Z,3.30
2023-01-02T11:48:00.524Z,2.83
2023-01-02T11:50:45.951Z,2.30
2023-01-02T11:53:40.644Z,2.95
2023-01-02T11:56:36.421Z,2.78
2023-01-02T11:59:31.226Z,3.03
2023-01-02T12:02:26.956Z,3.08
2023-01-02T12:05:22.646Z,2.92
2023-01-02T12:08:42.120Z,3.03
2023-01-02T12:11:37.977Z,2.50
2023-01-02T12:14:35.414Z,2.67
2023-01-02T12:17:33.289Z,2.50
2023-01-02T12:20:25.164Z,13.80
2023-01-02T12:23:13.540Z,12.25
2023-01-02T12:26:11.912Z,5.22
2023-01-02T12:29:06.209Z,3.78
2023-01-02T12:32:08.186Z,3.35
2023-01-02T12:35:18.687Z,3.13
2023-01-02T12:38:08.251Z,3.08
2023-01-02T12:42:01.398Z,3.50
2023-01-02T12:44:58.542Z,3.90
2023-01-02T12:47:56.211Z,3.92
2023-01-02T12:51:08.248Z,6.63
2023-01-02T12:54:18.759Z,7.70
2023-01-02T13:00:28.336Z,6.28
2023-01-02T13:03:35.905Z,4.28
2023-01-02T13:06:43.515Z,3.58
2023-01-02T13:09:43.575Z,3.53
2023-01-02T13:12:32.259Z,3.53
2023-01-02T13:15:36.241Z,5.55
2023-01-02T13:18:27.648Z,6.88
2023-01-02T13:22:04.186Z,6.40
2023-01-02T13:24:51.853Z,7.22
2023-01-02T13:27:37.547Z,8.27
2023-01-02T13:30:32.049Z,7.47
2023-01-02T13:33:24.041Z,5.28
2023-01-02T13:36:36.090Z,5.82
2023-01-02T13:39:37.936Z,4.15
2023-01-02T13:42:52.948Z,5.10
2023-01-02T13:45:50.753Z,9.02
2023-01-02T13:49:01.744Z,6.78
2023-01-02T13:51:47.732Z,7.22
2023-01-02T13:54:37.530Z,6.65
2023-01-02T13:57:29.117Z,6.10
2023-01-02T14:00:14.781Z,6.15
2023-01-02T14:03:23.198Z,5.90
2023-01-02T14:06:27.987Z,8.45
2023-01-02T14:09:15.254Z,8.02
2023-01-02T14:12:03.724Z,8.68
2023-01-02T14:14:52.738Z,9.77
2023-01-02T14:17:47.505Z,8.35
2023-01-02T14:20:36.979Z,7.53
2023-01-02T14:23:29.743Z,10.02
2023-01-02T14:26:29.200Z,9.60
2023-01-02T14:29:19.424Z,9.85
2023-01-02T14:32:39.208Z,11.70
2023-01-02T14:35:37.806Z,17.38
2023-01-02T14:38:26.446Z,17.80
2023-01-02T14:42:08.806Z,18.25
2023-01-02T14:45:03.017Z,25.57
2023-01-02T14:47:59.625Z,21.70
2023-01-02T14:50:48.831Z,24.63
2023-01-02T14:53:49.439Z,24.98
2023-01-02T14:56:38.469Z,22.88
2023-01-02T14:59:26.247Z,21.30
2023-01-02T15:02:19.398Z,14.30
2023-01-02T15:05:11.792Z,12.38
2023-01-02T15:11:32.944Z,15.05
2023-01-02T15:14:23.851Z,16.20
2023-01-02T15:17:22.042Z,15.40
2023-01-02T15:20:09.431Z,16.15
2023-01-02T15:22:56.126Z,19.75
2023-01-02T15:25:42.760Z,20.15
2023-01-02T15:28:33.096Z,22.10
2023-01-02T15:31:18.687Z,13.68
2023-01-02T15:34:03.975Z,17.65
2023-01-02T15:36:49.595Z,17.70
2023-01-02T15:39:40.132Z,18.65
2023-01-02T15:42:46.321Z,23.38
2023-01-02T15:45:33.181Z,22.75
2023-01-02T15:48:22.065Z,21.38
2023-01-02T15:51:16.232Z,23.88
2023-01-02T15:54:03.528Z,21.02
2023-01-02T15:56:49.487Z,19.83
2023-01-02T15:59:38.963Z,16.45
2023-01-02T16:02:42.925Z,17.63
2023-01-02T16:05:29.458Z,19.42
2023-01-02T16:08:21.475Z,22.23
2023-01-02T16:14:19.529Z,18.17
2023-01-02T16:17:14.449Z,16.70
2023-01-02T16:20:12.169Z,15.30
2023-01-02T16:23:05.832Z,14.32
2023-01-02T16:25:53.750Z,15.15
2023-01-02T16:28:43.837Z,15.57
2023-01-02T16:31:29.753Z,16.05
2023-01-02T16:34:27.233Z,15.43
2023-01-02T16:37:15.573Z,14.95
2023-01-02T16:40:58.949Z,14.93
2023-01-02T16:43:46.132Z,14.10
2023-01-02T16:46:32.183Z,15.05
2023-01-02T16:49:22.891Z,15.07
2023-01-02T16:52:09.953Z,15.32
2023-01-02T16:54:55.460Z,15.13
2023-01-02T16:57:41.015Z,14.50
2023-01-02T17:00:26.573Z,16.23
2023-01-02T17:03:25.242Z,16.50
2023-01-02T17:06:14.754Z,16.88
2023-01-02T17:09:00.545Z,17.75
2023-01-02T17:12:00.438Z,19.00
2023-01-02T17:14:46.321Z,18.58
2023-01-02T17:17:31.839Z,16.88
2023-01-02T17:20:17.333Z,16.30
2023-01-02T17:23:05.620Z,15.55
2023-01-02T17:25:51.431Z,17.40
2023-01-02T17:28:37.501Z,17.83
2023-01-02T17:31:26.067Z,19.40
2023-01-02T17:34:11.774Z,17.05
2023-01-02T17:36:58.138Z,19.55
2023-01-02T17:39:46.686Z,18.98
2023-01-02T17:42:32.743Z,19.25
2023-01-02T17:45:18.303Z,19.98
2023-01-02T17:48:10.975Z,19.58
2023-01-02T17:50:59.665Z,19.50
2023-01-02T17:53:48.801Z,14.38
2023-01-02T17:56:36.307Z,17.27
2023-01-02T17:59:24.588Z,18.00
2023-01-02T18:02:18.471Z,16.35
2023-01-02T18:05:06.394Z,15.68
2023-01-02T18:07:53.367Z,16.42
2023-01-02T18:10:40.652Z,17.23
2023-01-02T18:13:29.262Z,17.17
2023-01-02T18:16:21.610Z,16.85
2023-01-02T18:19:13.765Z,21.35
2023-01-02T18:24:47.575Z,13.85
2023-01-02T18:27:34.887Z,25.05
2023-01-02T18:30:23.462Z,26.02
2023-01-02T18:33:17.869Z,26.02
2023-01-02T18:36:18.705Z,27.27
2023-01-02T18:39:16.613Z,21.60
2023-01-02T18:42:14.592Z,15.95
2023-01-02T18:45:01.042Z,18.52
2023-01-02T18:47:56.397Z,17.52
2023-01-02T18:50:44.661Z,18.13
2023-01-02T18:53:35.885Z,17.58
2023-01-02T18:56:31.219Z,17.23
2023-01-02T18:59:29.097Z,14.73
2023-01-02T19:02:57.934Z,16.45
2023-01-02T19:05:45.654Z,15.65
2023-01-02T19:08:37.267Z,14.93
2023-01-02T19:11:51.498Z,15.80
2023-01-02T19:14:40.468Z,23.33
2023-01-02T19:17:33.234Z,23.00
2023-01-02T19:20:26.579Z,22.27
2023-01-02T19:23:26.828Z,21.88
2023-01-02T19:26:38.427Z,21.52
2023-01-02T19:29:32.842Z,23.17
2023-01-02T19:32:26.912Z,22.58
2023-01-02T19:35:25.343Z,22.73
2023-01-02T19:38:26.830Z,21.30
2023-01-02T19:41:16.652Z,23.38
2023-01-02T19:44:02.746Z,23.65
2023-01-02T19:46:48.419Z,25.48
2023-01-02T19:49:34.599Z,29.35
2023-01-02T19:52:22.139Z,23.00
2023-01-02T19:55:09.552Z,20.63
2023-01-02T19:57:55.316Z,20.20
2023-01-02T20:00:40.703Z,21.63
2023-01-02T20:03:26.440Z,20.27
2023-01-02T20:06:12.461Z,17.83
2023-01-02T20:08:58.732Z,16.38
2023-01-02T20:12:07.831Z,17.83
2023-01-02T20:14:53.750Z,16.15
2023-01-02T20:17:39.700Z,17.17
2023-01-02T20:20:26.530Z,15.48
2023-01-02T20:23:12.271Z,14.65
2023-01-02T20:25:59.117Z,11.32
2023-01-02T20:28:46.815Z,11.52
2023-01-02T20:31:32.413Z,11.82
2023-01-02T20:34:18.771Z,11.77
2023-01-02T20:37:05.758Z,12.52
2023-01-02T20:39:52.541Z,12.63
2023-01-02T20:42:38.195Z,12.82
2023-01-02T20:45:24.067Z,13.73
2023-01-02T20:48:12.236Z,12.45
2023-01-02T20:50:59.234Z,12.13
2023-01-02T20:53:47.768Z,12.23
2023-01-02T20:56:34.710Z,11.93
2023-01-02T20:59:21.777Z,11.43
2023-01-02T21:02:07.744Z,19.45
2023-01-02T21:04:55.469Z,10.90
2023-01-02T21:07:40.719Z,12.20
2023-01-02T21:10:27.344Z,12.35
2023-01-02T21:13:16.776Z,12.23
2023-01-02T21:16:03.342Z,12.05
2023-01-02T21:18:51.220Z,11.15
2023-01-02T21:21:37.365Z,11.90
2023-01-02T21:24:22.684Z,12.50
2023-01-02T21:27:12.994Z,11.88
2023-01-02T21:29:59.686Z,14.13
2023-01-02T21:32:47.894Z,10.50
2023-01-02T21:35:34.641Z,11.95
2023-01-02T21:38:22.100Z,11.77
2023-01-02T21:41:26.972Z,14.13
2023-01-02T21:44:12.467Z,23.15
2023-01-02T21:46:58.192Z,44.47
2023-01-02T21:49:44.499Z,54.67
2023-01-02T21:52:30.176Z,39.72
2023-01-02T21:55:17.558Z,23.90
2023-01-02T21:58:18.670Z,18.08
2023-01-02T22:01:05.781Z,13.05
2023-01-02T22:03:51.066Z,12.10
2023-01-02T22:06:38.766Z,10.80
2023-01-02T22:09:31.310Z,12.50
2023-01-02T22:12:17.818Z,26.42
2023-01-02T22:15:09.169Z,26.30
2023-01-02T22:17:54.819Z,19.02
2023-01-02T22:20:40.433Z,17.90
2023-01-02T22:23:25.924Z,18.40
2023-01-02T22:26:11.299Z,16.45
2023-01-02T22:28:57.581Z,13.90
2023-01-02T22:31:43.468Z,16.88
2023-01-02T22:34:33.278Z,17.25
2023-01-02T22:37:22.721Z,17.08
2023-01-02T22:40:10.087Z,14.38
2023-01-02T22:43:00.964Z,12.80
2023-01-02T22:45:52.677Z,14.20
2023-01-02T22:48:40.220Z,15.05
2023-01-02T22:51:57.677Z,15.43
2023-01-02T22:54:31.985Z,13.73
2023-01-02T22:57:18.237Z,14.63
2023-01-02T23:00:04.139Z,13.27
2023-01-02T23:02:50.571Z,11.80
2023-01-02T23:05:35.856Z,12.75
2023-01-02T23:08:21.451Z,11.73
2023-01-02T23:11:09.853Z,11.35
2023-01-02T23:13:56.904Z,14.55
2023-01-02T23:17:01.631Z,13.80
2023-01-02T23:19:47.470Z,21.92
2023-01-02T23:22:32.860Z,20.05
2023-01-02T23:25:18.558Z,19.77
2023-01-02T23:28:04.149Z,20.50
2023-01-02T23:30:49.491Z,26.92
2023-01-02T23:33:34.973Z,33.97
2023-01-02T23:36:20.165Z,42.17
2023-01-02T23:39:07.762Z,52.95
2023-01-02T23:41:54.526Z,58.33
2023-01-02T23:44:41.043Z,64.78
2023-01-02T23:47:27.733Z,59.50
2023-01-02T23:50:13.233Z,44.08
2023-01-02T23:52:58.754Z,35.22
2023-01-02T23:55:44.388Z,34.85
2023-01-02T23:58:29.944Z,28.55
